sensor_id;sensor_type;location;lat;lon;timestamp;temperature;humidity
15152;DHT22;7676;50.900;6.234;2022-10-23T00:03:13;16.30;99.90
15152;DHT22;7676;50.900;6.234;2022-10-23T00:08:15;16.00;99.90
15152;DHT22;7676;50.900;6.234;2022-10-23T00:13:18;16.00;99.90
15152;DHT22;7676;50.900;6.234;2022-10-23T00:18:20;16.00;99.90
15152;DHT22;7676;50.900;6.234;2022-10-23T00:23:23;16.10;99.90
15152;DHT22;7676;50.900;6.234;2022-10-23T00:28:26;16.00;99.90
15152;DHT22;7676;50.900;6.234;2022-10-23T00:33:28;16.10;99.90
15152;DHT22;7676;50.900;6.234;2022-10-23T00:38:31;16.10;99.90
15152;DHT22;7676;50.900;6.234;2022-10-23T00:43:52;16.00;99.90
15152;DHT22;7676;50.900;6.234;2022-10-23T00:48:56;15.90;99.90
15152;DHT22;7676;50.900;6.234;2022-10-23T00:53:59;16.00;99.90
15152;DHT22;7676;50.900;6.234;2022-10-23T00:59:24;16.00;99.90
15152;DHT22;7676;50.900;6.234;2022-10-23T01:04:27;16.00;99.90
15152;DHT22;7676;50.900;6.234;2022-10-23T01:14:59;15.90;99.90
15152;DHT22;7676;50.900;6.234;2022-10-23T01:31:16;15.40;99.90
15152;DHT22;7676;50.900;6.234;2022-10-23T01:36:23;15.60;99.90
15152;DHT22;7676;50.900;6.234;2022-10-23T01:41:37;15.30;99.90
15152;DHT22;7676;50.900;6.234;2022-10-23T01:46:41;15.20;99.90
15152;DHT22;7676;50.900;6.234;2022-10-23T01:51:50;15.30;99.90
15152;DHT22;7676;50.900;6.234;2022-10-23T01:56:56;15.20;99.90
15152;DHT22;7676;50.900;6.234;2022-10-23T02:02:03;15.10;99.90
15152;DHT22;7676;50.900;6.234;2022-10-23T02:07:08;15.10;99.90
15152;DHT22;7676;50.900;6.234;2022-10-23T02:22:57;14.70;99.90
15152;DHT22;7676;50.900;6.234;2022-10-23T02:28:05;14.40;99.90
15152;DHT22;7676;50.900;6.234;2022-10-23T02:33:16;14.50;99.90
15152;DHT22;7676;50.900;6.234;2022-10-23T02:43:38;14.70;99.90
15152;DHT22;7676;50.900;6.234;2022-10-23T02:48:47;14.80;99.90
15152;DHT22;7676;50.900;6.234;2022-10-23T02:54:09;14.90;99.90
15152;DHT22;7676;50.900;6.234;2022-10-23T02:59:29;15.10;99.90
15152;DHT22;7676;50.900;6.234;2022-10-23T03:04:37;15.40;99.90
15152;DHT22;7676;50.900;6.234;2022-10-23T03:09:40;15.00;99.90
15152;DHT22;7676;50.900;6.234;2022-10-23T03:14:42;15.00;99.90
15152;DHT22;7676;50.900;6.234;2022-10-23T03:19:45;14.90;99.90
15152;DHT22;7676;50.900;6.234;2022-10-23T03:24:48;14.90;99.90
15152;DHT22;7676;50.900;6.234;2022-10-23T03:29:51;14.90;99.90
15152;DHT22;7676;50.900;6.234;2022-10-23T03:34:53;14.80;99.90
15152;DHT22;7676;50.900;6.234;2022-10-23T03:39:57;14.70;99.90
15152;DHT22;7676;50.900;6.234;2022-10-23T03:44:59;14.40;99.90
15152;DHT22;7676;50.900;6.234;2022-10-23T03:50:02;14.70;99.90
15152;DHT22;7676;50.900;6.234;2022-10-23T03:55:08;14.70;99.90
15152;DHT22;7676;50.900;6.234;2022-10-23T04:00:11;14.70;99.90
15152;DHT22;7676;50.900;6.234;2022-10-23T04:05:21;14.50;99.90
15152;DHT22;7676;50.900;6.234;2022-10-23T04:10:29;14.40;99.90
15152;DHT22;7676;50.900;6.234;2022-10-23T04:15:31;14.40;99.90
15152;DHT22;7676;50.900;6.234;2022-10-23T04:20:36;14.40;99.90
15152;DHT22;7676;50.900;6.234;2022-10-23T04:25:38;14.10;99.90
15152;DHT22;7676;50.900;6.234;2022-10-23T04:30:41;14.20;99.90
15152;DHT22;7676;50.900;6.234;2022-10-23T04:35:46;14.20;99.90
15152;DHT22;7676;50.900;6.234;2022-10-23T04:40:49;14.40;99.90
15152;DHT22;7676;50.900;6.234;2022-10-23T04:45:55;14.40;99.90
15152;DHT22;7676;50.900;6.234;2022-10-23T04:51:00;14.30;99.90
15152;DHT22;7676;50.900;6.234;2022-10-23T04:56:22;14.70;99.90
15152;DHT22;7676;50.900;6.234;2022-10-23T05:01:31;14.20;99.90
15152;DHT22;7676;50.900;6.234;2022-10-23T05:06:34;14.10;99.90
15152;DHT22;7676;50.900;6.234;2022-10-23T05:12:15;14.20;99.90
15152;DHT22;7676;50.900;6.234;2022-10-23T05:17:28;13.80;99.90
15152;DHT22;7676;50.900;6.234;2022-10-23T05:22:35;14.00;99.90
15152;DHT22;7676;50.900;6.234;2022-10-23T05:27:41;14.00;99.90
15152;DHT22;7676;50.900;6.234;2022-10-23T05:32:46;13.70;99.90
15152;DHT22;7676;50.900;6.234;2022-10-23T05:37:50;13.80;99.90
15152;DHT22;7676;50.900;6.234;2022-10-23T05:42:59;13.90;99.90
15152;DHT22;7676;50.900;6.234;2022-10-23T05:48:25;14.00;99.90
15152;DHT22;7676;50.900;6.234;2022-10-23T05:53:51;14.00;99.90
15152;DHT22;7676;50.900;6.234;2022-10-23T05:59:07;14.00;99.90
15152;DHT22;7676;50.900;6.234;2022-10-23T06:04:45;14.00;99.90
15152;DHT22;7676;50.900;6.234;2022-10-23T06:10:06;13.80;99.90
15152;DHT22;7676;50.900;6.234;2022-10-23T06:15:13;13.80;99.90
15152;DHT22;7676;50.900;6.234;2022-10-23T06:20:42;13.70;99.90
15152;DHT22;7676;50.900;6.234;2022-10-23T06:25:57;13.60;99.90
15152;DHT22;7676;50.900;6.234;2022-10-23T06:31:10;13.60;99.90
15152;DHT22;7676;50.900;6.234;2022-10-23T06:36:13;13.60;99.90
15152;DHT22;7676;50.900;6.234;2022-10-23T06:41:19;13.50;99.90
15152;DHT22;7676;50.900;6.234;2022-10-23T06:46:28;13.30;99.90
15152;DHT22;7676;50.900;6.234;2022-10-23T06:51:52;13.30;99.90
15152;DHT22;7676;50.900;6.234;2022-10-23T06:56:57;13.40;99.90
15152;DHT22;7676;50.900;6.234;2022-10-23T07:02:10;13.20;99.90
15152;DHT22;7676;50.900;6.234;2022-10-23T07:07:13;13.30;99.90
15152;DHT22;7676;50.900;6.234;2022-10-23T07:12:20;13.40;99.90
15152;DHT22;7676;50.900;6.234;2022-10-23T07:17:29;13.40;99.90
15152;DHT22;7676;50.900;6.234;2022-10-23T07:22:33;13.50;99.90
15152;DHT22;7676;50.900;6.234;2022-10-23T07:27:46;15.70;99.90
15152;DHT22;7676;50.900;6.234;2022-10-23T07:32:49;13.60;99.90
15152;DHT22;7676;50.900;6.234;2022-10-23T07:38:13;13.80;99.90
15152;DHT22;7676;50.900;6.234;2022-10-23T07:43:21;13.80;99.90
15152;DHT22;7676;50.900;6.234;2022-10-23T07:48:25;13.90;99.90
15152;DHT22;7676;50.900;6.234;2022-10-23T07:53:35;14.20;99.90
15152;DHT22;7676;50.900;6.234;2022-10-23T07:58:45;14.30;99.90
15152;DHT22;7676;50.900;6.234;2022-10-23T08:03:53;14.40;99.90
15152;DHT22;7676;50.900;6.234;2022-10-23T08:08:56;14.60;99.90
15152;DHT22;7676;50.900;6.234;2022-10-23T08:14:08;14.80;99.90
15152;DHT22;7676;50.900;6.234;2022-10-23T08:19:13;15.10;99.90
15152;DHT22;7676;50.900;6.234;2022-10-23T08:24:17;15.00;99.90
15152;DHT22;7676;50.900;6.234;2022-10-23T08:29:23;15.00;99.90
15152;DHT22;7676;50.900;6.234;2022-10-23T08:34:28;15.00;99.90
15152;DHT22;7676;50.900;6.234;2022-10-23T08:39:30;15.20;99.90
15152;DHT22;7676;50.900;6.234;2022-10-23T08:45:06;15.30;99.90
15152;DHT22;7676;50.900;6.234;2022-10-23T08:50:29;15.60;99.90
15152;DHT22;7676;50.900;6.234;2022-10-23T08:55:35;15.50;99.90
15152;DHT22;7676;50.900;6.234;2022-10-23T09:00:40;15.70;99.90
15152;DHT22;7676;50.900;6.234;2022-10-23T09:05:59;15.70;99.90
15152;DHT22;7676;50.900;6.234;2022-10-23T09:22:10;16.40;99.90
15152;DHT22;7676;50.900;6.234;2022-10-23T09:27:16;16.60;99.90
15152;DHT22;7676;50.900;6.234;2022-10-23T09:32:30;16.60;99.90
15152;DHT22;7676;50.900;6.234;2022-10-23T09:37:45;16.70;99.90
15152;DHT22;7676;50.900;6.234;2022-10-23T09:48:16;16.80;99.90
15152;DHT22;7676;50.900;6.234;2022-10-23T09:53:28;17.00;99.90
15152;DHT22;7676;50.900;6.234;2022-10-23T09:58:38;17.00;99.90
15152;DHT22;7676;50.900;6.234;2022-10-23T10:03:48;17.00;99.90
15152;DHT22;7676;50.900;6.234;2022-10-23T10:08:58;16.90;99.90
15152;DHT22;7676;50.900;6.234;2022-10-23T10:19:34;16.90;99.90
15152;DHT22;7676;50.900;6.234;2022-10-23T10:30:22;16.90;99.90
15152;DHT22;7676;50.900;6.234;2022-10-23T10:35:40;16.80;99.90
15152;DHT22;7676;50.900;6.234;2022-10-23T10:46:27;16.80;99.90
15152;DHT22;7676;50.900;6.234;2022-10-23T10:51:54;17.00;99.90
15152;DHT22;7676;50.900;6.234;2022-10-23T10:57:05;16.90;99.90
15152;DHT22;7676;50.900;6.234;2022-10-23T11:02:38;17.10;99.90
15152;DHT22;7676;50.900;6.234;2022-10-23T11:12:54;17.30;99.90
15152;DHT22;7676;50.900;6.234;2022-10-23T11:18:00;17.60;99.90
15152;DHT22;7676;50.900;6.234;2022-10-23T11:34:01;18.30;99.90
15152;DHT22;7676;50.900;6.234;2022-10-23T11:49:27;19.20;99.90
15152;DHT22;7676;50.900;6.234;2022-10-23T11:54:30;19.20;99.90
15152;DHT22;7676;50.900;6.234;2022-10-23T11:59:35;19.30;99.90
15152;DHT22;7676;50.900;6.234;2022-10-23T12:04:45;19.40;99.90
15152;DHT22;7676;50.900;6.234;2022-10-23T12:10:18;19.60;99.90
15152;DHT22;7676;50.900;6.234;2022-10-23T12:15:22;19.70;99.90
15152;DHT22;7676;50.900;6.234;2022-10-23T12:20:50;19.80;99.90
15152;DHT22;7676;50.900;6.234;2022-10-23T12:26:09;19.90;99.90
15152;DHT22;7676;50.900;6.234;2022-10-23T12:31:21;20.20;99.90
15152;DHT22;7676;50.900;6.234;2022-10-23T12:42:25;20.30;99.90
15152;DHT22;7676;50.900;6.234;2022-10-23T12:47:28;20.50;99.90
15152;DHT22;7676;50.900;6.234;2022-10-23T12:52:32;20.60;99.90
15152;DHT22;7676;50.900;6.234;2022-10-23T12:57:41;20.30;99.90
15152;DHT22;7676;50.900;6.234;2022-10-23T13:02:45;20.20;99.90
15152;DHT22;7676;50.900;6.234;2022-10-23T13:07:48;20.00;99.90
15152;DHT22;7676;50.900;6.234;2022-10-23T13:13:05;19.90;99.90
15152;DHT22;7676;50.900;6.234;2022-10-23T13:18:10;20.00;99.90
15152;DHT22;7676;50.900;6.234;2022-10-23T13:23:22;19.80;99.90
15152;DHT22;7676;50.900;6.234;2022-10-23T13:28:32;19.70;99.90
15152;DHT22;7676;50.900;6.234;2022-10-23T13:38:42;19.80;99.90
15152;DHT22;7676;50.900;6.234;2022-10-23T13:43:47;19.90;99.90
15152;DHT22;7676;50.900;6.234;2022-10-23T13:48:49;20.10;99.90
15152;DHT22;7676;50.900;6.234;2022-10-23T13:53:53;20.30;99.90
15152;DHT22;7676;50.900;6.234;2022-10-23T13:58:55;20.60;99.90
15152;DHT22;7676;50.900;6.234;2022-10-23T14:03:58;20.80;99.90
15152;DHT22;7676;50.900;6.234;2022-10-23T14:09:01;20.70;99.90
15152;DHT22;7676;50.900;6.234;2022-10-23T14:14:03;21.00;99.90
15152;DHT22;7676;50.900;6.234;2022-10-23T14:19:06;21.00;99.90
15152;DHT22;7676;50.900;6.234;2022-10-23T14:24:10;21.00;99.90
15152;DHT22;7676;50.900;6.234;2022-10-23T14:29:12;20.90;99.90
15152;DHT22;7676;50.900;6.234;2022-10-23T14:34:25;20.90;99.90
15152;DHT22;7676;50.900;6.234;2022-10-23T14:39:27;20.70;99.90
15152;DHT22;7676;50.900;6.234;2022-10-23T14:44:29;20.70;99.90
15152;DHT22;7676;50.900;6.234;2022-10-23T14:49:32;20.40;99.90
15152;DHT22;7676;50.900;6.234;2022-10-23T14:54:37;20.40;99.90
15152;DHT22;7676;50.900;6.234;2022-10-23T14:59:39;20.10;99.90
15152;DHT22;7676;50.900;6.234;2022-10-23T15:04:42;20.00;99.90
15152;DHT22;7676;50.900;6.234;2022-10-23T15:09:45;19.70;99.90
15152;DHT22;7676;50.900;6.234;2022-10-23T15:14:47;19.80;99.90
15152;DHT22;7676;50.900;6.234;2022-10-23T15:19:50;19.60;99.90
15152;DHT22;7676;50.900;6.234;2022-10-23T15:24:53;19.50;99.90
15152;DHT22;7676;50.900;6.234;2022-10-23T15:29:57;19.40;99.90
15152;DHT22;7676;50.900;6.234;2022-10-23T15:34:59;19.40;99.90
15152;DHT22;7676;50.900;6.234;2022-10-23T15:40:02;19.40;99.90
15152;DHT22;7676;50.900;6.234;2022-10-23T15:45:05;19.40;99.90
15152;DHT22;7676;50.900;6.234;2022-10-23T15:50:08;19.50;99.90
15152;DHT22;7676;50.900;6.234;2022-10-23T15:55:11;19.50;99.90
15152;DHT22;7676;50.900;6.234;2022-10-23T16:00:14;19.30;99.90
15152;DHT22;7676;50.900;6.234;2022-10-23T16:05:21;19.30;99.90
15152;DHT22;7676;50.900;6.234;2022-10-23T16:10:24;18.90;99.90
15152;DHT22;7676;50.900;6.234;2022-10-23T16:15:26;18.80;99.90
15152;DHT22;7676;50.900;6.234;2022-10-23T16:20:29;18.90;99.90
15152;DHT22;7676;50.900;6.234;2022-10-23T16:25:35;19.70;99.90
15152;DHT22;7676;50.900;6.234;2022-10-23T16:30:41;19.00;99.90
15152;DHT22;7676;50.900;6.234;2022-10-23T16:35:43;18.90;99.90
15152;DHT22;7676;50.900;6.234;2022-10-23T16:40:52;18.90;99.90
15152;DHT22;7676;50.900;6.234;2022-10-23T16:46:16;18.90;99.90
15152;DHT22;7676;50.900;6.234;2022-10-23T16:51:21;19.00;99.90
15152;DHT22;7676;50.900;6.234;2022-10-23T16:56:26;19.00;99.90
15152;DHT22;7676;50.900;6.234;2022-10-23T17:01:32;19.00;99.90
15152;DHT22;7676;50.900;6.234;2022-10-23T17:06:35;18.70;99.90
15152;DHT22;7676;50.900;6.234;2022-10-23T17:11:39;18.90;99.90
15152;DHT22;7676;50.900;6.234;2022-10-23T17:16:45;18.90;99.90
15152;DHT22;7676;50.900;6.234;2022-10-23T17:21:48;19.10;99.90
15152;DHT22;7676;50.900;6.234;2022-10-23T17:26:51;19.20;99.90
15152;DHT22;7676;50.900;6.234;2022-10-23T17:31:55;19.30;99.90
15152;DHT22;7676;50.900;6.234;2022-10-23T17:36:57;19.20;99.90
15152;DHT22;7676;50.900;6.234;2022-10-23T17:41:59;19.10;99.90
15152;DHT22;7676;50.900;6.234;2022-10-23T17:47:02;19.10;99.90
15152;DHT22;7676;50.900;6.234;2022-10-23T17:52:04;19.20;99.90
15152;DHT22;7676;50.900;6.234;2022-10-23T17:57:07;19.20;99.90
15152;DHT22;7676;50.900;6.234;2022-10-23T18:02:11;19.10;99.90
15152;DHT22;7676;50.900;6.234;2022-10-23T18:07:14;19.10;99.90
15152;DHT22;7676;50.900;6.234;2022-10-23T18:12:17;19.10;99.90
15152;DHT22;7676;50.900;6.234;2022-10-23T18:17:19;19.20;99.90
15152;DHT22;7676;50.900;6.234;2022-10-23T18:22:22;19.20;99.90
15152;DHT22;7676;50.900;6.234;2022-10-23T18:27:24;19.10;99.90
15152;DHT22;7676;50.900;6.234;2022-10-23T18:32:28;19.00;99.90
15152;DHT22;7676;50.900;6.234;2022-10-23T18:37:31;18.90;99.90
15152;DHT22;7676;50.900;6.234;2022-10-23T18:42:39;18.90;99.90
15152;DHT22;7676;50.900;6.234;2022-10-23T18:47:43;18.70;99.90
15152;DHT22;7676;50.900;6.234;2022-10-23T18:52:46;18.60;99.90
15152;DHT22;7676;50.900;6.234;2022-10-23T18:57:48;18.70;99.90
15152;DHT22;7676;50.900;6.234;2022-10-23T19:02:51;18.50;99.90
15152;DHT22;7676;50.900;6.234;2022-10-23T19:07:54;18.40;99.90
15152;DHT22;7676;50.900;6.234;2022-10-23T19:12:56;18.60;99.90
15152;DHT22;7676;50.900;6.234;2022-10-23T19:17:59;18.50;99.90
15152;DHT22;7676;50.900;6.234;2022-10-23T19:23:04;18.40;99.90
15152;DHT22;7676;50.900;6.234;2022-10-23T19:28:08;18.30;99.90
15152;DHT22;7676;50.900;6.234;2022-10-23T19:33:10;18.50;99.90
15152;DHT22;7676;50.900;6.234;2022-10-23T19:38:12;18.50;99.90
15152;DHT22;7676;50.900;6.234;2022-10-23T19:43:15;18.60;99.90
15152;DHT22;7676;50.900;6.234;2022-10-23T19:48:17;18.50;99.90
15152;DHT22;7676;50.900;6.234;2022-10-23T19:53:20;18.30;99.90
15152;DHT22;7676;50.900;6.234;2022-10-23T19:58:22;18.30;99.90
15152;DHT22;7676;50.900;6.234;2022-10-23T20:03:24;18.40;99.90
15152;DHT22;7676;50.900;6.234;2022-10-23T20:08:27;18.40;99.90
15152;DHT22;7676;50.900;6.234;2022-10-23T20:13:36;18.40;99.90
15152;DHT22;7676;50.900;6.234;2022-10-23T20:18:38;18.40;99.90
15152;DHT22;7676;50.900;6.234;2022-10-23T20:23:41;18.30;99.90
15152;DHT22;7676;50.900;6.234;2022-10-23T20:28:44;18.30;99.90
15152;DHT22;7676;50.900;6.234;2022-10-23T20:33:53;18.30;99.90
15152;DHT22;7676;50.900;6.234;2022-10-23T20:38:57;18.40;99.90
15152;DHT22;7676;50.900;6.234;2022-10-23T20:44:00;18.50;99.90
15152;DHT22;7676;50.900;6.234;2022-10-23T20:49:03;18.50;99.90
15152;DHT22;7676;50.900;6.234;2022-10-23T20:54:05;18.60;99.90
15152;DHT22;7676;50.900;6.234;2022-10-23T20:59:16;18.60;99.90
15152;DHT22;7676;50.900;6.234;2022-10-23T21:04:21;18.50;99.90
15152;DHT22;7676;50.900;6.234;2022-10-23T21:09:24;18.40;99.90
15152;DHT22;7676;50.900;6.234;2022-10-23T21:14:26;18.40;99.90
15152;DHT22;7676;50.900;6.234;2022-10-23T21:19:29;18.40;99.90
15152;DHT22;7676;50.900;6.234;2022-10-23T21:24:32;18.40;99.90
15152;DHT22;7676;50.900;6.234;2022-10-23T21:29:34;18.30;99.90
15152;DHT22;7676;50.900;6.234;2022-10-23T21:34:37;18.20;99.90
15152;DHT22;7676;50.900;6.234;2022-10-23T21:39:40;18.10;99.90
15152;DHT22;7676;50.900;6.234;2022-10-23T21:44:43;18.10;99.90
15152;DHT22;7676;50.900;6.234;2022-10-23T21:49:45;18.10;99.90
15152;DHT22;7676;50.900;6.234;2022-10-23T21:54:51;18.00;99.90
15152;DHT22;7676;50.900;6.234;2022-10-23T21:59:53;17.90;99.90
15152;DHT22;7676;50.900;6.234;2022-10-23T22:04:55;17.90;99.90
15152;DHT22;7676;50.900;6.234;2022-10-23T22:09:58;18.00;99.90
15152;DHT22;7676;50.900;6.234;2022-10-23T22:15:00;18.00;99.90
15152;DHT22;7676;50.900;6.234;2022-10-23T22:20:03;18.00;99.90
15152;DHT22;7676;50.900;6.234;2022-10-23T22:25:05;18.00;99.90
15152;DHT22;7676;50.900;6.234;2022-10-23T22:30:08;17.90;99.90
15152;DHT22;7676;50.900;6.234;2022-10-23T22:35:11;17.90;99.90
15152;DHT22;7676;50.900;6.234;2022-10-23T22:40:13;18.00;99.90
15152;DHT22;7676;50.900;6.234;2022-10-23T22:45:16;18.10;99.90
15152;DHT22;7676;50.900;6.234;2022-10-23T22:50:18;18.20;99.90
15152;DHT22;7676;50.900;6.234;2022-10-23T22:55:20;18.30;99.90
15152;DHT22;7676;50.900;6.234;2022-10-23T23:00:23;18.30;99.90
15152;DHT22;7676;50.900;6.234;2022-10-23T23:05:25;18.20;99.90
15152;DHT22;7676;50.900;6.234;2022-10-23T23:10:28;18.20;99.90
15152;DHT22;7676;50.900;6.234;2022-10-23T23:15:30;18.20;99.90
15152;DHT22;7676;50.900;6.234;2022-10-23T23:20:33;18.20;99.90
15152;DHT22;7676;50.900;6.234;2022-10-23T23:25:43;18.10;99.90
15152;DHT22;7676;50.900;6.234;2022-10-23T23:30:46;17.90;99.90
15152;DHT22;7676;50.900;6.234;2022-10-23T23:35:49;18.10;99.90
15152;DHT22;7676;50.900;6.234;2022-10-23T23:40:52;18.00;99.90
15152;DHT22;7676;50.900;6.234;2022-10-23T23:45:55;18.10;99.90
15152;DHT22;7676;50.900;6.234;2022-10-23T23:50:58;18.10;99.90
15152;DHT22;7676;50.900;6.234;2022-10-23T23:56:00;18.10;99.90
